BOX175 EDDP-EBBR
Flight info
| Callsign | BOX175 |
|---|---|
| Flight time | 0h 52m |
| Altitude | 36000 |
| Route | EDDP/08R ORTAG Q230 KUMER DCT WRB DCT ABAMI Z717 NEREL T855 BATTY |
| Aircraft | B77L/H-SDE1E2E3FGHIJ2J3J4J5M1RWXY/LB1D1 |
Departure
| Time | 2026-05-07 17:41 |
|---|---|
| Airport | Leipzig/Halle Airport (EDDP) |
Arrival
| Time | 2026-05-07 18:34 |
|---|---|
| Airport | Brussels Airport (EBBR) |
| Time | Latitude | Longitude | Altitude | Speed | Heading |
|---|---|---|---|---|---|
| 2026-05-07 17:20 | 51.40995 | 12.24509 | 468 ft | 0 kts | 265° |
| 2026-05-07 17:31 | 51.40995 | 12.24522 | 473 ft | 4 kts | 268° |
| 2026-05-07 17:31 | 51.40993 | 12.24564 | 468 ft | 4 kts | 289° |
| 2026-05-07 17:32 | 51.40981 | 12.24600 | 467 ft | 4 kts | 323° |
| 2026-05-07 17:32 | 51.40965 | 12.24611 | 467 ft | 1 kts | 356° |
| 2026-05-07 17:35 | 51.40983 | 12.24609 | 466 ft | 7 kts | 355° |
| 2026-05-07 17:35 | 51.41057 | 12.24597 | 471 ft | 12 kts | 351° |
| 2026-05-07 17:36 | 51.41142 | 12.24575 | 473 ft | 12 kts | 347° |
| 2026-05-07 17:36 | 51.41177 | 12.24462 | 472 ft | 12 kts | 269° |
| 2026-05-07 17:36 | 51.41169 | 12.24296 | 471 ft | 19 kts | 266° |
| 2026-05-07 17:36 | 51.41159 | 12.24075 | 469 ft | 20 kts | 265° |
| 2026-05-07 17:37 | 51.41149 | 12.23851 | 472 ft | 20 kts | 266° |
| 2026-05-07 17:37 | 51.41138 | 12.23628 | 476 ft | 20 kts | 265° |
| 2026-05-07 17:37 | 51.41126 | 12.23374 | 479 ft | 25 kts | 266° |
| 2026-05-07 17:37 | 51.41113 | 12.23089 | 475 ft | 26 kts | 265° |
| 2026-05-07 17:38 | 51.41099 | 12.22802 | 469 ft | 26 kts | 265° |
| 2026-05-07 17:38 | 51.41086 | 12.22517 | 465 ft | 26 kts | 265° |
| 2026-05-07 17:38 | 51.41072 | 12.22231 | 464 ft | 26 kts | 265° |
| 2026-05-07 17:38 | 51.41059 | 12.21945 | 463 ft | 26 kts | 266° |
| 2026-05-07 17:39 | 51.41046 | 12.21659 | 464 ft | 26 kts | 266° |
| 2026-05-07 17:39 | 51.41032 | 12.21373 | 457 ft | 26 kts | 265° |
| 2026-05-07 17:39 | 51.41019 | 12.21087 | 451 ft | 26 kts | 266° |
| 2026-05-07 17:39 | 51.41005 | 12.20795 | 434 ft | 27 kts | 265° |
| 2026-05-07 17:40 | 51.40995 | 12.20580 | 433 ft | 14 kts | 268° |
| 2026-05-07 17:40 | 51.41062 | 12.20492 | 437 ft | 14 kts | 6° |
| 2026-05-07 17:40 | 51.41153 | 12.20548 | 427 ft | 14 kts | 52° |
| 2026-05-07 17:40 | 51.41174 | 12.20741 | 433 ft | 29 kts | 85° |
| 2026-05-07 17:41 | 51.41206 | 12.21425 | 456 ft | 97 kts | 85° |
| 2026-05-07 17:41 | 51.41273 | 12.22829 | 470 ft | 154 kts | 85° |
| 2026-05-07 17:41 | 51.41365 | 12.24715 | 753 ft | 172 kts | 84° |
| 2026-05-07 17:41 | 51.41455 | 12.26651 | 1368 ft | 177 kts | 84° |
| 2026-05-07 17:42 | 51.41546 | 12.28591 | 2117 ft | 174 kts | 84° |
| 2026-05-07 17:42 | 51.41649 | 12.30613 | 2516 ft | 193 kts | 83° |
| 2026-05-07 17:42 | 51.41772 | 12.32902 | 2761 ft | 220 kts | 83° |
| 2026-05-07 17:42 | 51.41914 | 12.35502 | 3051 ft | 244 kts | 84° |
| 2026-05-07 17:43 | 51.42092 | 12.38219 | 3692 ft | 251 kts | 77° |
| 2026-05-07 17:43 | 51.42875 | 12.40727 | 4379 ft | 257 kts | 45° |
| 2026-05-07 17:43 | 51.44364 | 12.42279 | 5197 ft | 260 kts | 17° |
| 2026-05-07 17:43 | 51.46159 | 12.42626 | 6021 ft | 263 kts | 354° |
| 2026-05-07 17:44 | 51.47975 | 12.42033 | 6755 ft | 269 kts | 345° |
| 2026-05-07 17:44 | 51.49783 | 12.41209 | 7566 ft | 271 kts | 345° |
| 2026-05-07 17:44 | 51.51608 | 12.40384 | 8379 ft | 274 kts | 345° |
| 2026-05-07 17:44 | 51.53397 | 12.39316 | 8988 ft | 279 kts | 326° |
| 2026-05-07 17:45 | 51.54653 | 12.36940 | 9658 ft | 285 kts | 292° |
| 2026-05-07 17:45 | 51.54923 | 12.33801 | 10409 ft | 288 kts | 265° |
| 2026-05-07 17:45 | 51.54721 | 12.30525 | 10741 ft | 306 kts | 266° |
| 2026-05-07 17:45 | 51.54617 | 12.26975 | 10925 ft | 331 kts | 270° |
| 2026-05-07 17:46 | 51.54619 | 12.23175 | 11130 ft | 356 kts | 271° |
| 2026-05-07 17:46 | 51.54648 | 12.19116 | 11734 ft | 368 kts | 271° |
| 2026-05-07 17:46 | 51.54676 | 12.14956 | 12556 ft | 376 kts | 271° |
| 2026-05-07 17:46 | 51.54695 | 12.10736 | 13504 ft | 380 kts | 271° |
| 2026-05-07 17:47 | 51.54707 | 12.06451 | 14397 ft | 385 kts | 271° |
| 2026-05-07 17:47 | 51.54711 | 12.02119 | 15215 ft | 390 kts | 271° |
| 2026-05-07 17:47 | 51.54710 | 11.97738 | 16052 ft | 394 kts | 271° |
| 2026-05-07 17:47 | 51.54706 | 11.93297 | 16861 ft | 399 kts | 271° |
| 2026-05-07 17:48 | 51.54699 | 11.88813 | 17658 ft | 404 kts | 271° |
| 2026-05-07 17:48 | 51.54689 | 11.84315 | 18439 ft | 409 kts | 271° |
| 2026-05-07 17:48 | 51.54678 | 11.79708 | 19134 ft | 413 kts | 271° |
| 2026-05-07 17:48 | 51.54664 | 11.75065 | 19871 ft | 417 kts | 271° |
| 2026-05-07 17:49 | 51.54649 | 11.70391 | 20586 ft | 420 kts | 271° |
| 2026-05-07 17:49 | 51.54632 | 11.65668 | 21281 ft | 424 kts | 271° |
| 2026-05-07 17:49 | 51.54613 | 11.60911 | 21980 ft | 427 kts | 270° |
| 2026-05-07 17:49 | 51.54592 | 11.56136 | 22786 ft | 428 kts | 270° |
| 2026-05-07 17:50 | 51.54569 | 11.51350 | 23458 ft | 433 kts | 270° |
| 2026-05-07 17:50 | 51.54543 | 11.46478 | 24000 ft | 438 kts | 270° |
| 2026-05-07 17:50 | 51.54515 | 11.41567 | 24540 ft | 442 kts | 270° |
| 2026-05-07 17:50 | 51.54485 | 11.36615 | 25138 ft | 444 kts | 270° |
| 2026-05-07 17:51 | 51.54453 | 11.31639 | 25728 ft | 447 kts | 270° |
| 2026-05-07 17:51 | 51.54430 | 11.28327 | 26108 ft | 449 kts | 270° |
| 2026-05-07 17:51 | 51.54394 | 11.23292 | 26639 ft | 452 kts | 270° |
| 2026-05-07 17:51 | 51.54342 | 11.16563 | 27339 ft | 457 kts | 270° |
| 2026-05-07 17:52 | 51.54300 | 11.11442 | 27893 ft | 459 kts | 270° |
| 2026-05-07 17:52 | 51.54271 | 11.07980 | 28359 ft | 459 kts | 269° |
| 2026-05-07 17:52 | 51.54225 | 11.02891 | 28909 ft | 461 kts | 269° |
| 2026-05-07 17:52 | 51.54176 | 10.97699 | 29232 ft | 467 kts | 269° |
| 2026-05-07 17:53 | 51.54125 | 10.92453 | 29517 ft | 470 kts | 269° |
| 2026-05-07 17:53 | 51.54071 | 10.87194 | 29842 ft | 472 kts | 269° |
| 2026-05-07 17:53 | 51.54014 | 10.81907 | 30333 ft | 472 kts | 269° |
| 2026-05-07 17:53 | 51.53956 | 10.76651 | 30905 ft | 470 kts | 269° |
| 2026-05-07 17:54 | 51.53896 | 10.71400 | 31393 ft | 469 kts | 269° |
| 2026-05-07 17:54 | 51.53834 | 10.66164 | 31872 ft | 469 kts | 269° |
| 2026-05-07 17:54 | 51.53767 | 10.60913 | 32283 ft | 470 kts | 269° |
| 2026-05-07 17:54 | 51.53691 | 10.55707 | 32682 ft | 471 kts | 269° |
| 2026-05-07 17:55 | 51.53608 | 10.50429 | 33133 ft | 471 kts | 269° |
| 2026-05-07 17:55 | 51.53522 | 10.45167 | 33582 ft | 471 kts | 269° |
| 2026-05-07 17:55 | 51.53434 | 10.39907 | 34011 ft | 471 kts | 269° |
| 2026-05-07 17:55 | 51.53344 | 10.34649 | 34368 ft | 471 kts | 268° |
| 2026-05-07 17:56 | 51.53253 | 10.29385 | 34733 ft | 470 kts | 268° |
| 2026-05-07 17:56 | 51.53160 | 10.24141 | 35105 ft | 469 kts | 268° |
| 2026-05-07 17:56 | 51.53065 | 10.18903 | 35458 ft | 468 kts | 268° |
| 2026-05-07 17:56 | 51.52970 | 10.13738 | 35784 ft | 468 kts | 268° |
| 2026-05-07 17:57 | 51.52871 | 10.08514 | 36022 ft | 470 kts | 268° |
| 2026-05-07 17:57 | 51.52768 | 10.03241 | 36047 ft | 473 kts | 268° |
| 2026-05-07 17:57 | 51.52557 | 9.92689 | 36072 ft | 469 kts | 268° |
| 2026-05-07 17:58 | 51.52338 | 9.82262 | 36079 ft | 465 kts | 268° |
| 2026-05-07 17:58 | 51.52112 | 9.71902 | 36073 ft | 464 kts | 268° |
| 2026-05-07 17:59 | 51.51877 | 9.61586 | 36086 ft | 464 kts | 268° |
| 2026-05-07 17:59 | 51.51631 | 9.51186 | 36079 ft | 465 kts | 268° |
| 2026-05-07 18:00 | 51.51377 | 9.40815 | 36079 ft | 466 kts | 268° |
| 2026-05-07 18:00 | 51.51114 | 9.30420 | 36088 ft | 466 kts | 267° |
| 2026-05-07 18:01 | 51.50841 | 9.19999 | 36082 ft | 467 kts | 267° |
| 2026-05-07 18:01 | 51.50557 | 9.09594 | 36089 ft | 467 kts | 267° |
| 2026-05-07 18:02 | 51.49982 | 8.94020 | 36097 ft | 467 kts | 266° |
| 2026-05-07 18:03 | 51.49568 | 8.83609 | 36104 ft | 467 kts | 266° |
| 2026-05-07 18:03 | 51.49154 | 8.73198 | 36103 ft | 467 kts | 266° |
| 2026-05-07 18:04 | 51.48739 | 8.62839 | 36104 ft | 467 kts | 266° |
| 2026-05-07 18:04 | 51.48313 | 8.52440 | 36097 ft | 466 kts | 266° |
| 2026-05-07 18:05 | 51.47879 | 8.42071 | 36083 ft | 465 kts | 266° |
| 2026-05-07 18:05 | 51.47437 | 8.31731 | 36041 ft | 460 kts | 266° |
| 2026-05-07 18:05 | 51.47219 | 8.26709 | 35853 ft | 455 kts | 266° |
| 2026-05-07 18:06 | 51.46998 | 8.21662 | 35527 ft | 453 kts | 266° |
| 2026-05-07 18:06 | 51.46750 | 8.16626 | 35158 ft | 452 kts | 263° |
| 2026-05-07 18:06 | 51.46209 | 8.11666 | 34819 ft | 451 kts | 257° |
| 2026-05-07 18:06 | 51.45333 | 8.06845 | 34519 ft | 449 kts | 250° |
| 2026-05-07 18:07 | 51.44231 | 8.02181 | 34257 ft | 446 kts | 249° |
| 2026-05-07 18:07 | 51.43118 | 7.97553 | 33955 ft | 443 kts | 249° |
| 2026-05-07 18:07 | 51.42012 | 7.92956 | 33609 ft | 441 kts | 250° |
| 2026-05-07 18:07 | 51.40916 | 7.88377 | 33289 ft | 438 kts | 250° |
| 2026-05-07 18:08 | 51.39832 | 7.83831 | 33125 ft | 433 kts | 250° |
| 2026-05-07 18:08 | 51.37700 | 7.74854 | 33089 ft | 433 kts | 250° |
| 2026-05-07 18:09 | 51.35549 | 7.65806 | 33083 ft | 439 kts | 249° |
| 2026-05-07 18:09 | 51.33392 | 7.56768 | 32759 ft | 430 kts | 249° |
| 2026-05-07 18:09 | 51.32324 | 7.52309 | 32434 ft | 427 kts | 249° |
| 2026-05-07 18:10 | 51.31262 | 7.47886 | 32113 ft | 425 kts | 249° |
| 2026-05-07 18:10 | 51.30206 | 7.43496 | 31700 ft | 421 kts | 249° |
| 2026-05-07 18:10 | 51.29155 | 7.39133 | 31227 ft | 418 kts | 249° |
| 2026-05-07 18:10 | 51.28112 | 7.34812 | 30762 ft | 415 kts | 249° |
| 2026-05-07 18:11 | 51.27120 | 7.30563 | 30367 ft | 410 kts | 252° |
| 2026-05-07 18:11 | 51.26558 | 7.27636 | 30154 ft | 406 kts | 255° |
| 2026-05-07 18:11 | 51.25605 | 7.21900 | 29496 ft | 402 kts | 256° |
| 2026-05-07 18:11 | 51.24919 | 7.17595 | 29035 ft | 398 kts | 256° |
| 2026-05-07 18:12 | 51.24223 | 7.13327 | 28596 ft | 395 kts | 255° |
| 2026-05-07 18:12 | 51.23518 | 7.09116 | 28124 ft | 392 kts | 255° |
| 2026-05-07 18:12 | 51.22802 | 7.04935 | 27666 ft | 389 kts | 255° |
| 2026-05-07 18:12 | 51.22080 | 7.00781 | 27216 ft | 386 kts | 254° |
| 2026-05-07 18:13 | 51.21360 | 6.96672 | 26783 ft | 383 kts | 254° |
| 2026-05-07 18:13 | 51.20641 | 6.92590 | 26357 ft | 381 kts | 254° |
| 2026-05-07 18:13 | 51.19924 | 6.88532 | 25918 ft | 379 kts | 254° |
| 2026-05-07 18:13 | 51.19218 | 6.84549 | 25497 ft | 377 kts | 254° |
| 2026-05-07 18:14 | 51.18505 | 6.80529 | 25078 ft | 375 kts | 254° |
| 2026-05-07 18:14 | 51.17798 | 6.76549 | 24656 ft | 373 kts | 254° |
| 2026-05-07 18:14 | 51.17090 | 6.72579 | 24239 ft | 371 kts | 254° |
| 2026-05-07 18:14 | 51.16386 | 6.68635 | 23823 ft | 370 kts | 254° |
| 2026-05-07 18:15 | 51.15685 | 6.64710 | 23363 ft | 368 kts | 254° |
| 2026-05-07 18:15 | 51.14984 | 6.60798 | 22901 ft | 366 kts | 254° |
| 2026-05-07 18:15 | 51.14285 | 6.56904 | 22473 ft | 364 kts | 254° |
| 2026-05-07 18:15 | 51.13589 | 6.53034 | 22033 ft | 362 kts | 254° |
| 2026-05-07 18:16 | 51.12897 | 6.49186 | 21628 ft | 360 kts | 254° |
| 2026-05-07 18:16 | 51.12219 | 6.45412 | 21222 ft | 358 kts | 254° |
| 2026-05-07 18:16 | 51.11537 | 6.41616 | 20815 ft | 356 kts | 254° |
| 2026-05-07 18:16 | 51.10857 | 6.37839 | 20419 ft | 354 kts | 254° |
| 2026-05-07 18:17 | 51.10178 | 6.34078 | 20010 ft | 353 kts | 254° |
| 2026-05-07 18:17 | 51.09503 | 6.30338 | 19610 ft | 351 kts | 254° |
| 2026-05-07 18:17 | 51.08826 | 6.26604 | 19244 ft | 350 kts | 254° |
| 2026-05-07 18:17 | 51.08151 | 6.22885 | 18883 ft | 350 kts | 254° |
| 2026-05-07 18:18 | 51.07473 | 6.19163 | 18446 ft | 349 kts | 254° |
| 2026-05-07 18:18 | 51.06797 | 6.15460 | 18002 ft | 347 kts | 254° |
| 2026-05-07 18:18 | 51.06125 | 6.11782 | 17564 ft | 345 kts | 254° |
| 2026-05-07 18:18 | 51.05458 | 6.08138 | 17150 ft | 342 kts | 254° |
| 2026-05-07 18:19 | 51.04804 | 6.04570 | 16760 ft | 339 kts | 254° |
| 2026-05-07 18:19 | 51.04148 | 6.00995 | 16364 ft | 335 kts | 253° |
| 2026-05-07 18:19 | 51.03497 | 5.97452 | 15975 ft | 332 kts | 253° |
| 2026-05-07 18:19 | 51.02851 | 5.93948 | 15596 ft | 329 kts | 253° |
| 2026-05-07 18:20 | 51.02208 | 5.90473 | 15228 ft | 326 kts | 253° |
| 2026-05-07 18:20 | 51.01574 | 5.87051 | 14938 ft | 320 kts | 253° |
| 2026-05-07 18:20 | 51.00949 | 5.83679 | 14600 ft | 317 kts | 253° |
| 2026-05-07 18:20 | 51.00443 | 5.80299 | 14096 ft | 315 kts | 263° |
| 2026-05-07 18:21 | 51.00338 | 5.76801 | 13512 ft | 319 kts | 269° |
| 2026-05-07 18:21 | 51.00359 | 5.73256 | 12948 ft | 321 kts | 270° |
| 2026-05-07 18:21 | 51.00386 | 5.69753 | 12498 ft | 320 kts | 270° |
| 2026-05-07 18:21 | 51.00389 | 5.66223 | 12023 ft | 319 kts | 269° |
| 2026-05-07 18:22 | 51.00369 | 5.62708 | 11614 ft | 317 kts | 269° |
| 2026-05-07 18:22 | 51.00346 | 5.60393 | 11357 ft | 315 kts | 268° |
| 2026-05-07 18:22 | 51.00284 | 5.55777 | 10859 ft | 310 kts | 268° |
| 2026-05-07 18:22 | 51.00229 | 5.52369 | 10545 ft | 305 kts | 268° |
| 2026-05-07 18:23 | 51.00171 | 5.49065 | 10424 ft | 294 kts | 268° |
| 2026-05-07 18:23 | 51.00113 | 5.45877 | 10296 ft | 283 kts | 268° |
| 2026-05-07 18:23 | 51.00056 | 5.42857 | 10164 ft | 272 kts | 268° |
| 2026-05-07 18:23 | 50.99999 | 5.39922 | 9997 ft | 262 kts | 268° |
| 2026-05-07 18:24 | 50.99942 | 5.37022 | 9516 ft | 264 kts | 268° |
| 2026-05-07 18:24 | 50.99883 | 5.34095 | 9009 ft | 267 kts | 268° |
| 2026-05-07 18:24 | 50.99823 | 5.31145 | 8566 ft | 267 kts | 268° |
| 2026-05-07 18:24 | 50.99763 | 5.28202 | 8183 ft | 266 kts | 268° |
| 2026-05-07 18:25 | 50.99703 | 5.25282 | 7805 ft | 264 kts | 268° |
| 2026-05-07 18:25 | 50.99643 | 5.22380 | 7462 ft | 262 kts | 268° |
| 2026-05-07 18:25 | 50.99582 | 5.19506 | 7163 ft | 260 kts | 268° |
| 2026-05-07 18:25 | 50.99520 | 5.16622 | 6868 ft | 262 kts | 268° |
| 2026-05-07 18:26 | 50.99457 | 5.13725 | 6578 ft | 262 kts | 268° |
| 2026-05-07 18:26 | 50.99399 | 5.10839 | 6260 ft | 261 kts | 268° |
| 2026-05-07 18:26 | 50.99346 | 5.07971 | 5949 ft | 259 kts | 268° |
| 2026-05-07 18:26 | 50.99294 | 5.05146 | 5855 ft | 251 kts | 268° |
| 2026-05-07 18:27 | 50.99243 | 5.02351 | 5866 ft | 256 kts | 268° |
| 2026-05-07 18:27 | 50.99189 | 4.99519 | 5794 ft | 265 kts | 268° |
| 2026-05-07 18:27 | 50.99132 | 4.96537 | 5435 ft | 270 kts | 268° |
| 2026-05-07 18:27 | 50.99094 | 4.94584 | 5376 ft | 265 kts | 268° |
| 2026-05-07 18:28 | 50.99021 | 4.90812 | 5108 ft | 244 kts | 268° |
| 2026-05-07 18:28 | 50.98969 | 4.88159 | 4588 ft | 239 kts | 268° |
| 2026-05-07 18:28 | 50.98916 | 4.85535 | 4045 ft | 236 kts | 268° |
| 2026-05-07 18:28 | 50.98864 | 4.82959 | 3434 ft | 237 kts | 268° |
| 2026-05-07 18:29 | 50.98810 | 4.80383 | 2985 ft | 229 kts | 268° |
| 2026-05-07 18:29 | 50.98759 | 4.77927 | 2713 ft | 219 kts | 268° |
| 2026-05-07 18:29 | 50.98599 | 4.75563 | 2401 ft | 213 kts | 250° |
| 2026-05-07 18:29 | 50.97967 | 4.73475 | 2150 ft | 207 kts | 243° |
| 2026-05-07 18:30 | 50.97364 | 4.71452 | 2139 ft | 198 kts | 245° |
| 2026-05-07 18:30 | 50.96812 | 4.69538 | 2047 ft | 187 kts | 245° |
| 2026-05-07 18:30 | 50.96270 | 4.67668 | 2025 ft | 186 kts | 245° |
| 2026-05-07 18:30 | 50.95738 | 4.65833 | 1999 ft | 184 kts | 245° |
| 2026-05-07 18:31 | 50.95212 | 4.64016 | 1979 ft | 176 kts | 245° |
| 2026-05-07 18:31 | 50.94700 | 4.62237 | 1828 ft | 179 kts | 245° |
| 2026-05-07 18:31 | 50.94199 | 4.60493 | 1606 ft | 170 kts | 245° |
| 2026-05-07 18:31 | 50.93722 | 4.58836 | 1243 ft | 160 kts | 245° |
| 2026-05-07 18:32 | 50.93276 | 4.57291 | 1004 ft | 152 kts | 245° |
| 2026-05-07 18:32 | 50.92826 | 4.55750 | 968 ft | 156 kts | 245° |
| 2026-05-07 18:32 | 50.92381 | 4.54185 | 777 ft | 155 kts | 246° |
| 2026-05-07 18:32 | 50.91937 | 4.52651 | 532 ft | 153 kts | 245° |
| 2026-05-07 18:33 | 50.91508 | 4.51167 | 312 ft | 148 kts | 245° |
| 2026-05-07 18:33 | 50.91076 | 4.49665 | 151 ft | 151 kts | 245° |
| 2026-05-07 18:33 | 50.90670 | 4.48263 | 120 ft | 122 kts | 245° |
| 2026-05-07 18:33 | 50.90377 | 4.47250 | 126 ft | 91 kts | 245° |
| 2026-05-07 18:34 | 50.90132 | 4.46403 | 138 ft | 78 kts | 245° |
| 2026-05-07 18:34 | 50.89979 | 4.45872 | 144 ft | 31 kts | 245° |
| 2026-05-07 18:34 | 50.89938 | 4.45655 | 145 ft | 17 kts | 282° |
| 2026-05-07 18:34 | 50.89996 | 4.45580 | 146 ft | 11 kts | 335° |
| 2026-05-07 18:35 | 50.90049 | 4.45543 | 146 ft | 0 kts | 335° |
| 2026-05-07 18:35 | 50.90065 | 4.45534 | 146 ft | 7 kts | 346° |
| 2026-05-07 18:35 | 50.90122 | 4.45588 | 145 ft | 11 kts | 64° |
| 2026-05-07 18:35 | 50.90158 | 4.45692 | 144 ft | 11 kts | 64° |
| 2026-05-07 18:36 | 50.90193 | 4.45816 | 143 ft | 16 kts | 66° |
| 2026-05-07 18:36 | 50.90245 | 4.45995 | 141 ft | 19 kts | 65° |
| 2026-05-07 18:36 | 50.90285 | 4.46115 | 140 ft | 7 kts | 35° |
| 2026-05-07 18:36 | 50.90336 | 4.46096 | 140 ft | 8 kts | 335° |
| 2026-05-07 18:37 | 50.90370 | 4.46072 | 140 ft | 0 kts | 335° |